createdAt,value
2023-01-21T00:02:29.064Z,2.80
2023-01-21T00:04:58.944Z,2.72
2023-01-21T00:07:29.751Z,2.50
2023-01-21T00:09:59.835Z,2.58
2023-01-21T00:12:29.932Z,1.95
2023-01-21T00:14:59.767Z,2.53
2023-01-21T00:17:29.559Z,2.60
2023-01-21T00:19:59.390Z,3.67
2023-01-21T00:22:29.212Z,2.95
2023-01-21T00:24:59.705Z,3.15
2023-01-21T00:27:29.536Z,2.60
2023-01-21T00:29:59.636Z,2.97
2023-01-21T00:32:30.396Z,2.70
2023-01-21T00:35:00.615Z,2.78
2023-01-21T00:37:30.426Z,2.83
2023-01-21T00:40:00.276Z,2.95
2023-01-21T00:42:30.158Z,2.70
2023-01-21T00:45:01.217Z,2.72
2023-01-21T00:47:31.517Z,3.03
2023-01-21T00:50:01.898Z,2.67
2023-01-21T00:52:32.087Z,2.33
2023-01-21T00:55:02.265Z,2.78
2023-01-21T00:57:32.072Z,2.78
2023-01-21T01:00:02.056Z,3.20
2023-01-21T01:02:31.911Z,3.40
2023-01-21T01:05:03.902Z,2.92
2023-01-21T01:07:34.340Z,3.22
2023-01-21T01:10:04.233Z,2.88
2023-01-21T01:12:34.060Z,3.10
2023-01-21T01:15:03.860Z,2.20
2023-01-21T01:17:33.712Z,2.45
2023-01-21T01:20:04.224Z,2.10
2023-01-21T01:22:34.492Z,2.22
2023-01-21T01:25:04.391Z,2.42
2023-01-21T01:27:34.213Z,2.17
2023-01-21T01:30:04.214Z,2.63
2023-01-21T01:32:35.384Z,2.83
2023-01-21T01:35:05.672Z,3.42
2023-01-21T01:37:36.668Z,2.65
2023-01-21T01:40:07.336Z,3.05
2023-01-21T01:42:37.159Z,3.13
2023-01-21T01:45:18.408Z,3.20
2023-01-21T01:48:01.071Z,2.38
2023-01-21T01:50:38.775Z,2.47
2023-01-21T01:53:09.453Z,2.38
2023-01-21T01:55:41.786Z,1.83
2023-01-21T01:58:15.977Z,1.88
2023-01-21T02:00:46.384Z,2.13
2023-01-21T02:03:36.187Z,2.40
2023-01-21T02:06:07.078Z,2.92
2023-01-21T02:08:37.572Z,2.78
2023-01-21T02:11:19.496Z,2.90
2023-01-21T02:13:54.583Z,3.25
2023-01-21T02:16:39.073Z,3.03
2023-01-21T02:19:25.819Z,2.90
2023-01-21T02:22:04.094Z,2.90
2023-01-21T02:25:04.116Z,2.78
2023-01-21T02:27:49.829Z,2.67
2023-01-21T02:30:43.413Z,2.60
2023-01-21T02:33:29.499Z,3.20
2023-01-21T02:36:06.050Z,2.38
2023-01-21T02:38:54.266Z,3.25
2023-01-21T02:41:57.174Z,2.40
2023-01-21T02:44:47.534Z,1.67
2023-01-21T02:47:27.056Z,2.55
2023-01-21T02:50:00.753Z,2.53
2023-01-21T02:52:30.737Z,2.47
2023-01-21T02:55:03.155Z,2.22
2023-01-21T02:57:52.089Z,2.47
2023-01-21T03:00:27.529Z,2.88
2023-01-21T03:03:16.936Z,2.65
2023-01-21T03:06:14.772Z,2.75
2023-01-21T03:08:58.735Z,2.35
2023-01-21T03:11:29.761Z,2.80
2023-01-21T03:14:20.063Z,2.63
2023-01-21T03:17:00.112Z,2.70
2023-01-21T03:19:40.598Z,2.25
2023-01-21T03:22:19.951Z,2.10
2023-01-21T03:24:53.479Z,2.55
2023-01-21T03:27:28.127Z,3.03
2023-01-21T03:30:12.871Z,2.83
2023-01-21T03:32:45.480Z,3.05
2023-01-21T03:35:19.342Z,2.35
2023-01-21T03:37:59.564Z,2.75
2023-01-21T03:40:39.356Z,2.35
2023-01-21T03:43:09.617Z,2.20
2023-01-21T03:45:57.084Z,2.22
2023-01-21T03:48:50.663Z,2.30
2023-01-21T03:51:25.747Z,2.40
2023-01-21T03:54:00.329Z,2.70
2023-01-21T03:56:30.682Z,2.83
2023-01-21T03:59:00.506Z,2.70
2023-01-21T04:01:30.690Z,2.78
2023-01-21T04:04:00.528Z,2.78
2023-01-21T04:06:30.726Z,3.15
2023-01-21T04:09:00.850Z,3.00
2023-01-21T04:11:30.708Z,2.60
2023-01-21T04:14:00.491Z,2.92
2023-01-21T04:16:30.428Z,2.72
2023-01-21T04:19:00.240Z,2.63
2023-01-21T04:21:30.016Z,2.53
2023-01-21T04:23:59.845Z,2.95
2023-01-21T04:26:29.610Z,2.40
2023-01-21T04:28:59.400Z,2.92
2023-01-21T04:31:29.231Z,2.67
2023-01-21T04:33:59.425Z,2.38
2023-01-21T04:36:29.209Z,2.40
2023-01-21T04:38:59.403Z,3.00
2023-01-21T04:41:29.511Z,2.53
2023-01-21T04:43:59.306Z,3.42
2023-01-21T04:46:29.100Z,3.15
2023-01-21T04:48:58.891Z,3.15
2023-01-21T04:51:28.759Z,2.67
2023-01-21T04:53:58.534Z,2.22
2023-01-21T04:56:28.313Z,3.03
2023-01-21T04:58:58.088Z,3.15
2023-01-21T05:01:27.938Z,2.60
2023-01-21T05:03:58.262Z,2.35
2023-01-21T05:06:28.455Z,2.50
2023-01-21T05:08:58.254Z,1.92
2023-01-21T05:11:29.031Z,2.15
2023-01-21T05:14:00.287Z,2.20
2023-01-21T05:16:30.569Z,2.45
2023-01-21T05:19:00.370Z,4.15
2023-01-21T05:21:30.183Z,2.80
2023-01-21T05:23:59.943Z,2.72
2023-01-21T05:26:29.835Z,3.25
2023-01-21T05:29:00.008Z,3.25
2023-01-21T05:31:31.439Z,3.03
2023-01-21T05:34:01.529Z,2.83
2023-01-21T05:36:31.703Z,2.60
2023-01-21T05:39:01.913Z,2.25
2023-01-21T05:41:32.326Z,2.65
2023-01-21T05:44:02.103Z,2.03
2023-01-21T05:46:31.940Z,2.13
2023-01-21T05:49:01.732Z,2.28
2023-01-21T05:51:31.954Z,1.90
2023-01-21T05:54:02.088Z,2.10
2023-01-21T05:56:31.877Z,1.92
2023-01-21T05:59:01.742Z,2.40
2023-01-21T06:01:32.616Z,2.17
2023-01-21T06:04:02.412Z,2.00
2023-01-21T06:06:32.658Z,2.40
2023-01-21T06:09:02.527Z,2.30
2023-01-21T06:11:32.356Z,2.45
2023-01-21T06:14:02.152Z,2.45
2023-01-21T06:16:32.293Z,2.53
2023-01-21T06:19:02.193Z,2.17
2023-01-21T06:21:32.205Z,2.58
2023-01-21T06:24:03.620Z,3.00
2023-01-21T06:26:35.235Z,2.80
2023-01-21T06:29:05.626Z,2.63
2023-01-21T06:31:35.511Z,3.15
2023-01-21T06:34:05.529Z,2.88
2023-01-21T06:36:35.345Z,3.08
2023-01-21T06:39:05.188Z,2.55
2023-01-21T06:41:35.030Z,2.80
2023-01-21T06:44:05.451Z,2.92
2023-01-21T06:46:35.460Z,3.10
2023-01-21T06:49:05.422Z,2.95
2023-01-21T06:51:35.205Z,3.00
2023-01-21T06:54:05.097Z,3.30
2023-01-21T06:56:35.887Z,3.95
2023-01-21T06:59:06.735Z,3.17
2023-01-21T07:01:36.587Z,2.75
2023-01-21T07:04:06.908Z,2.75
2023-01-21T07:06:37.753Z,3.15
2023-01-21T07:09:08.935Z,2.67
2023-01-21T07:11:39.296Z,3.20
2023-01-21T07:14:09.293Z,2.95
2023-01-21T07:16:39.176Z,2.65
2023-01-21T07:19:09.183Z,2.63
2023-01-21T07:21:39.009Z,2.55
2023-01-21T07:24:10.417Z,2.65
2023-01-21T07:26:41.331Z,2.60
2023-01-21T07:29:11.453Z,2.08
2023-01-21T07:31:41.455Z,2.58
2023-01-21T07:34:11.320Z,2.53
2023-01-21T07:36:41.139Z,2.83
2023-01-21T07:39:11.411Z,2.17
2023-01-21T07:41:41.310Z,2.25
2023-01-21T07:44:14.917Z,2.30
2023-01-21T07:46:46.050Z,2.50
2023-01-21T07:49:18.503Z,2.25
2023-01-21T07:51:49.631Z,1.98
2023-01-21T07:54:19.622Z,2.53
2023-01-21T07:56:49.615Z,1.90
2023-01-21T07:59:19.647Z,1.85
2023-01-21T08:01:49.601Z,1.85
2023-01-21T08:04:19.639Z,1.60
2023-01-21T08:06:49.419Z,2.20
2023-01-21T08:09:19.180Z,1.55
2023-01-21T08:11:48.986Z,1.83
2023-01-21T08:14:19.463Z,1.70
2023-01-21T08:16:49.263Z,1.92
2023-01-21T08:19:19.048Z,1.40
2023-01-21T08:21:49.147Z,1.75
2023-01-21T08:24:18.980Z,1.50
2023-01-21T08:26:50.211Z,1.60
2023-01-21T08:29:20.184Z,1.60
2023-01-21T08:31:49.966Z,1.70
2023-01-21T08:34:20.682Z,1.70
2023-01-21T08:36:50.422Z,1.65
2023-01-21T08:39:20.673Z,1.50
2023-01-21T08:41:50.423Z,1.60
2023-01-21T08:44:20.214Z,1.85
2023-01-21T08:46:51.434Z,1.70
2023-01-21T08:49:23.730Z,1.60
2023-01-21T08:54:23.108Z,1.30
2023-01-21T08:56:54.476Z,1.30
2023-01-21T08:59:29.679Z,1.70
2023-01-21T09:01:59.873Z,1.88
2023-01-21T09:04:29.671Z,1.70
2023-01-21T09:06:59.925Z,1.52
2023-01-21T09:09:30.341Z,2.03
2023-01-21T09:12:00.134Z,1.60
2023-01-21T09:14:30.209Z,1.73
2023-01-21T09:16:59.985Z,1.70
2023-01-21T09:19:30.059Z,1.73
2023-01-21T09:22:00.070Z,1.80
2023-01-21T09:24:29.982Z,2.58
2023-01-21T09:27:00.189Z,1.70
2023-01-21T09:29:30.038Z,1.52
2023-01-21T09:31:59.876Z,1.63
2023-01-21T09:34:29.815Z,1.92
2023-01-21T09:36:59.686Z,1.75
2023-01-21T09:39:29.459Z,1.80
2023-01-21T09:41:59.428Z,1.35
2023-01-21T09:44:45.925Z,1.48
2023-01-21T09:47:39.485Z,1.70
2023-01-21T09:50:23.624Z,1.52
2023-01-21T09:53:02.324Z,1.58
2023-01-21T09:58:17.941Z,1.42
2023-01-21T10:00:58.723Z,1.50
2023-01-21T10:03:51.884Z,1.45
2023-01-21T10:06:56.815Z,1.60
2023-01-21T10:09:50.971Z,1.60
2023-01-21T10:12:23.538Z,2.40
2023-01-21T10:15:44.725Z,2.40
2023-01-21T10:18:16.806Z,2.33
2023-01-21T10:23:49.499Z,2.03
2023-01-21T10:26:19.605Z,2.25
2023-01-21T10:28:52.565Z,2.50
2023-01-21T10:31:27.359Z,2.70
2023-01-21T10:33:57.848Z,2.20
2023-01-21T10:36:53.516Z,2.10
2023-01-21T10:40:08.682Z,2.13
2023-01-21T10:43:10.486Z,2.03
2023-01-21T10:45:49.168Z,2.13
2023-01-21T10:48:47.064Z,1.83
2023-01-21T10:51:30.645Z,1.63
2023-01-21T10:54:20.435Z,1.60
2023-01-21T10:57:08.299Z,1.80
2023-01-21T10:59:40.105Z,1.75
2023-01-21T11:02:10.243Z,1.20
2023-01-21T11:04:43.703Z,1.30
2023-01-21T11:07:19.236Z,1.30
2023-01-21T11:09:50.196Z,1.20
2023-01-21T11:12:22.984Z,0.93
2023-01-21T11:14:59.541Z,1.10
2023-01-21T11:17:37.941Z,1.02
2023-01-21T11:20:35.521Z,1.55
2023-01-21T11:23:24.413Z,1.75
2023-01-21T11:26:22.986Z,0.90
2023-01-21T11:29:17.513Z,1.50
2023-01-21T11:31:50.868Z,1.42
2023-01-21T11:34:24.034Z,1.50
2023-01-21T11:37:05.987Z,1.00
2023-01-21T11:39:42.891Z,1.00
2023-01-21T11:42:20.509Z,1.05
2023-01-21T11:44:59.485Z,1.25
2023-01-21T11:47:50.801Z,1.25
2023-01-21T11:50:32.330Z,0.80
2023-01-21T11:53:12.526Z,1.13
2023-01-21T11:56:04.040Z,0.88
2023-01-21T11:58:40.020Z,0.93
2023-01-21T12:01:22.513Z,0.90
2023-01-21T12:04:02.154Z,0.70
2023-01-21T12:06:36.103Z,1.10
2023-01-21T12:09:09.018Z,0.90
2023-01-21T12:11:39.435Z,0.85
2023-01-21T12:14:32.169Z,0.70
2023-01-21T12:17:51.234Z,0.70
2023-01-21T12:20:34.232Z,0.65
2023-01-21T12:23:42.580Z,0.70
2023-01-21T12:26:39.373Z,0.60
2023-01-21T12:29:19.514Z,0.77
2023-01-21T12:32:02.640Z,0.50
2023-01-21T12:35:07.056Z,0.70
2023-01-21T12:37:51.022Z,0.73
2023-01-21T12:40:39.491Z,0.55
2023-01-21T12:43:20.671Z,0.70
2023-01-21T12:46:16.733Z,0.80
2023-01-21T12:49:02.160Z,0.73
2023-01-21T12:51:41.430Z,0.50
2023-01-21T12:54:29.486Z,0.60
2023-01-21T12:57:12.448Z,0.50
2023-01-21T12:59:55.083Z,0.63
2023-01-21T13:02:31.142Z,0.60
2023-01-21T13:05:21.490Z,0.68
2023-01-21T13:08:23.308Z,0.82
2023-01-21T13:11:26.959Z,0.70
2023-01-21T13:14:01.744Z,0.60
2023-01-21T13:16:33.996Z,0.82
2023-01-21T13:19:04.108Z,0.57
2023-01-21T13:21:54.551Z,0.50
2023-01-21T13:24:33.956Z,0.70
2023-01-21T13:27:04.112Z,0.50
2023-01-21T13:30:07.669Z,0.50
2023-01-21T13:32:40.400Z,0.90
2023-01-21T13:35:34.672Z,0.60
2023-01-21T13:38:29.951Z,0.50
2023-01-21T13:41:21.704Z,0.57
2023-01-21T13:44:21.353Z,0.50
2023-01-21T13:46:56.261Z,0.60
2023-01-21T13:49:53.518Z,0.50
2023-01-21T13:53:03.507Z,0.50
2023-01-21T13:55:48.544Z,0.55
2023-01-21T13:58:33.016Z,0.70
2023-01-21T14:01:08.015Z,0.70
2023-01-21T14:03:56.480Z,1.13
2023-01-21T14:06:54.168Z,0.65
2023-01-21T14:09:30.486Z,0.60
2023-01-21T14:12:08.927Z,0.50
2023-01-21T14:14:56.673Z,0.40
2023-01-21T14:17:53.360Z,0.52
2023-01-21T14:20:39.659Z,0.70
2023-01-21T14:23:41.446Z,0.50
2023-01-21T14:26:32.375Z,0.60
2023-01-21T14:29:18.673Z,0.70
2023-01-21T14:31:59.287Z,0.75
2023-01-21T14:34:42.412Z,1.25
2023-01-21T14:37:17.753Z,0.57
2023-01-21T14:40:09.009Z,0.63
2023-01-21T14:42:44.757Z,1.63
2023-01-21T14:45:17.987Z,0.50
2023-01-21T14:47:56.329Z,0.85
2023-01-21T14:50:47.264Z,0.40
2023-01-21T14:53:26.824Z,0.52
2023-01-21T14:56:16.165Z,0.70
2023-01-21T14:59:04.560Z,0.73
2023-01-21T15:01:43.453Z,0.60
2023-01-21T15:04:41.537Z,0.80
2023-01-21T15:07:19.935Z,0.75
2023-01-21T15:09:55.757Z,0.57
2023-01-21T15:12:32.894Z,0.50
2023-01-21T15:15:24.103Z,0.50
2023-01-21T15:18:01.914Z,0.60
2023-01-21T15:20:54.244Z,0.52
2023-01-21T15:23:33.394Z,0.70
2023-01-21T15:26:15.282Z,0.50
2023-01-21T15:28:47.326Z,0.77
2023-01-21T15:31:24.570Z,0.50
2023-01-21T15:33:58.763Z,0.50
2023-01-21T15:36:45.454Z,0.60
2023-01-21T15:39:19.245Z,0.75
2023-01-21T15:42:07.331Z,0.60
2023-01-21T15:44:50.806Z,0.60
2023-01-21T15:47:52.710Z,0.70
2023-01-21T15:50:40.282Z,0.50
2023-01-21T15:53:31.351Z,0.60
2023-01-21T15:56:25.411Z,0.60
2023-01-21T15:59:30.836Z,0.50
2023-01-21T16:02:27.346Z,0.50
2023-01-21T16:05:44.029Z,0.50
2023-01-21T16:08:28.046Z,1.13
2023-01-21T16:11:46.739Z,0.60
2023-01-21T16:14:47.382Z,0.55
2023-01-21T16:17:46.961Z,0.47
2023-01-21T16:20:18.518Z,0.50
2023-01-21T16:22:53.195Z,0.40
2023-01-21T16:25:27.127Z,0.63
2023-01-21T16:27:57.727Z,0.80
2023-01-21T16:30:33.068Z,0.50
2023-01-21T16:33:17.450Z,0.45
2023-01-21T16:36:01.835Z,0.68
2023-01-21T16:38:34.179Z,0.45
2023-01-21T16:41:09.934Z,0.95
2023-01-21T16:43:51.901Z,0.40
2023-01-21T16:46:39.370Z,0.50
2023-01-21T16:49:20.163Z,0.60
2023-01-21T16:52:03.109Z,0.50
2023-01-21T16:54:34.776Z,0.40
2023-01-21T16:57:17.355Z,0.50
2023-01-21T16:59:53.772Z,0.40
2023-01-21T17:02:29.595Z,0.47
2023-01-21T17:05:07.600Z,0.50
2023-01-21T17:07:44.795Z,0.52
2023-01-21T17:10:25.994Z,1.45
2023-01-21T17:13:01.062Z,0.70
2023-01-21T17:15:37.317Z,0.52
2023-01-21T17:18:19.691Z,0.43
2023-01-21T17:20:54.314Z,0.65
2023-01-21T17:23:35.376Z,0.60
2023-01-21T17:26:34.221Z,0.70
2023-01-21T17:29:19.867Z,0.63
2023-01-21T17:32:28.143Z,0.52
2023-01-21T17:35:14.579Z,0.60
2023-01-21T17:37:56.138Z,0.50
2023-01-21T17:40:44.259Z,0.63
2023-01-21T17:43:26.632Z,0.60
2023-01-21T17:45:59.197Z,0.50
2023-01-21T17:48:34.094Z,0.50
2023-01-21T17:51:18.541Z,0.60
2023-01-21T17:53:57.266Z,0.45
2023-01-21T17:56:39.807Z,0.73
2023-01-21T17:59:32.710Z,0.88
2023-01-21T18:02:11.308Z,0.60
2023-01-21T18:04:42.379Z,0.60
2023-01-21T18:07:32.930Z,1.60
2023-01-21T18:10:04.278Z,0.60
2023-01-21T18:12:34.842Z,0.60
2023-01-21T18:15:05.139Z,0.52
2023-01-21T18:17:35.278Z,0.30
2023-01-21T18:20:05.519Z,0.50
2023-01-21T18:22:38.056Z,0.70
2023-01-21T18:25:09.010Z,0.60
2023-01-21T18:27:39.407Z,0.40
2023-01-21T18:30:21.141Z,0.50
2023-01-21T18:32:51.221Z,0.45
2023-01-21T18:35:24.708Z,0.47
2023-01-21T18:37:55.566Z,0.50
2023-01-21T18:40:26.313Z,0.50
2023-01-21T18:42:57.200Z,0.60
2023-01-21T18:45:29.757Z,0.32
2023-01-21T18:48:00.162Z,0.60
2023-01-21T18:50:31.942Z,0.40
2023-01-21T18:53:02.841Z,0.43
2023-01-21T18:55:32.747Z,0.40
2023-01-21T18:58:05.304Z,0.52
2023-01-21T19:00:35.996Z,0.50
2023-01-21T19:03:06.085Z,0.50
2023-01-21T19:05:40.319Z,0.60
2023-01-21T19:08:30.443Z,0.52
2023-01-21T19:11:00.970Z,0.80
2023-01-21T19:13:30.919Z,0.65
2023-01-21T19:16:01.836Z,0.60
2023-01-21T19:18:31.865Z,0.65
2023-01-21T19:21:02.936Z,0.35
2023-01-21T19:23:32.902Z,0.60
2023-01-21T19:26:03.588Z,0.35
2023-01-21T19:28:35.837Z,0.40
2023-01-21T19:31:06.679Z,0.35
2023-01-21T19:33:36.920Z,0.40
2023-01-21T19:36:16.131Z,0.50
2023-01-21T19:38:54.710Z,0.60
2023-01-21T19:41:25.385Z,0.55
2023-01-21T19:43:55.422Z,0.52
2023-01-21T19:46:29.907Z,0.80
2023-01-21T19:49:13.148Z,0.40
2023-01-21T19:51:43.843Z,0.50
2023-01-21T19:54:14.048Z,0.63
2023-01-21T19:56:44.320Z,0.60
2023-01-21T19:59:17.635Z,0.50
2023-01-21T20:01:48.254Z,0.40
2023-01-21T20:04:18.520Z,0.60
2023-01-21T20:06:48.785Z,0.50
2023-01-21T20:09:20.096Z,0.60
2023-01-21T20:11:50.118Z,0.55
2023-01-21T20:14:20.148Z,0.52
2023-01-21T20:16:53.257Z,0.40
2023-01-21T20:19:24.116Z,0.82
2023-01-21T20:22:01.628Z,0.52
2023-01-21T20:27:09.343Z,0.40
2023-01-21T20:29:49.423Z,0.30
2023-01-21T20:32:25.830Z,0.60
2023-01-21T20:34:55.762Z,0.50
2023-01-21T20:37:26.374Z,0.40
2023-01-21T20:39:56.714Z,0.50
2023-01-21T20:42:27.372Z,0.50
2023-01-21T20:44:58.032Z,0.65
2023-01-21T20:47:38.603Z,0.60
2023-01-21T20:50:26.182Z,0.50
2023-01-21T20:52:57.734Z,0.50
2023-01-21T20:55:29.783Z,0.70
2023-01-21T20:58:00.145Z,0.80
2023-01-21T21:00:33.987Z,1.02
2023-01-21T21:03:04.659Z,0.60
2023-01-21T21:05:34.869Z,0.50
2023-01-21T21:08:05.123Z,0.43
2023-01-21T21:10:37.608Z,0.70
2023-01-21T21:13:08.390Z,0.40
2023-01-21T21:15:39.151Z,0.47
2023-01-21T21:18:09.381Z,0.90
2023-01-21T21:20:41.010Z,0.50
2023-01-21T21:23:15.949Z,0.60
2023-01-21T21:25:47.893Z,0.60
2023-01-21T21:28:19.561Z,0.40
2023-01-21T21:30:50.022Z,0.57
2023-01-21T21:33:23.259Z,0.73
2023-01-21T21:35:53.292Z,0.60
2023-01-21T21:38:23.239Z,0.93
2023-01-21T21:40:54.241Z,0.60
2023-01-21T21:43:33.474Z,0.77
2023-01-21T21:46:26.867Z,0.60
2023-01-21T21:48:57.097Z,0.85
2023-01-21T21:51:27.156Z,0.65
2023-01-21T21:53:57.342Z,0.73
2023-01-21T21:56:27.412Z,0.70
2023-01-21T21:58:57.276Z,0.70
2023-01-21T22:01:30.504Z,0.80
2023-01-21T22:04:02.936Z,1.33
2023-01-21T22:06:34.262Z,0.90
2023-01-21T22:09:05.320Z,0.65
2023-01-21T22:11:35.359Z,0.68
2023-01-21T22:14:05.333Z,0.65
2023-01-21T22:16:35.581Z,1.10
2023-01-21T22:19:05.916Z,0.80
2023-01-21T22:21:36.677Z,0.75
2023-01-21T22:24:10.237Z,0.85
2023-01-21T22:26:40.555Z,0.73
2023-01-21T22:29:10.426Z,0.90
2023-01-21T22:31:40.876Z,1.08
2023-01-21T22:34:12.576Z,1.60
2023-01-21T22:36:48.105Z,1.17
2023-01-21T22:39:19.415Z,0.80
2023-01-21T22:41:49.641Z,0.82
2023-01-21T22:44:20.014Z,0.80
2023-01-21T22:46:49.814Z,0.77
2023-01-21T22:49:19.827Z,0.60
2023-01-21T22:51:49.663Z,2.97
2023-01-21T22:54:19.671Z,0.95
2023-01-21T22:56:52.833Z,1.77
2023-01-21T22:59:23.431Z,1.02
2023-01-21T23:01:53.544Z,1.50
2023-01-21T23:04:24.388Z,0.73
2023-01-21T23:06:56.097Z,1.20
2023-01-21T23:09:26.191Z,2.00
2023-01-21T23:11:56.228Z,1.50
2023-01-21T23:14:26.302Z,1.73
2023-01-21T23:16:56.632Z,0.95
2023-01-21T23:19:27.673Z,0.60
2023-01-21T23:21:57.536Z,1.40
2023-01-21T23:24:27.360Z,1.10
2023-01-21T23:26:57.617Z,3.08
2023-01-21T23:29:27.443Z,0.98
2023-01-21T23:32:01.190Z,1.08
2023-01-21T23:34:52.457Z,0.90
2023-01-21T23:37:23.264Z,0.88
2023-01-21T23:40:14.673Z,0.73
2023-01-21T23:42:58.259Z,1.83
2023-01-21T23:45:52.515Z,0.60
2023-01-21T23:48:25.767Z,0.80
2023-01-21T23:50:59.269Z,0.90
2023-01-21T23:53:33.973Z,0.73
2023-01-21T23:56:30.178Z,1.65
2023-01-21T23:59:01.662Z,0.93
